Terminal Aerodrome Forecast
Issued by NWS

Home | Current Version | Previous Version | Text Only | Print | Product List | Glossary On
Versions: 1 2 3 4 5 6 7 8 9 10 11 12 13
000
FTUS43 KOAX 021142
TAFCDR
TAF
KCDR 021142Z 0212/0312 19010G19KT P6SM SCT050 BKN100
     FM030300 03012KT 3SM -SN BR SCT007 BKN015 OVC025
     FM030600 01022G30KT 1SM -SN BLSN BKN004 OVC010=

USA.gov is the U.S. government's official web portal to all federal, state and local government web resources and services.